Time;durP1;ratioP1;P1;durP2;ratioP2;P2;SDS_P1;SDS_P2;PMS_P1;PMS_P2;Temp;Humidity;BMP_temperature;BMP_pressure;BME280_temperature;BME280_humidity;BME280_pressure;Samples;Min_cycle;Max_cycle;Signal;HPM_P1;HPM_P2
2022/08/20 00:03:58;;;;;;;3.55;1.30;;;;;;;20.49;94.45;100248.88;20654471;28;20050;-75
2022/08/20 00:14:01;;;;;;;3.53;1.63;;;;;;;20.48;95.51;100239.19;20654789;28;20052;-75
2022/08/20 00:24:03;;;;;;;3.60;1.60;;;;;;;20.43;97.01;100249.22;20654172;28;20482;-75
2022/08/20 00:34:04;;;;;;;4.95;1.30;;;;;;;20.39;98.30;100250.34;20653461;28;20466;-75
2022/08/20 00:44:06;;;;;;;3.35;1.30;;;;;;;20.18;100.00;100253.31;20653451;28;20120;-75
2022/08/20 00:54:07;;;;;;;2.28;1.10;;;;;;;20.15;100.00;100256.13;20662168;28;20046;-75
2022/08/20 01:04:09;;;;;;;3.55;1.00;;;;;;;20.22;100.00;100265.47;20668394;28;20058;-75
2022/08/20 01:24:21;;;;;;;3.63;1.35;;;;;;;20.30;100.00;100267.66;20667739;28;20050;-76
2022/08/20 01:34:23;;;;;;;2.80;1.40;;;;;;;20.30;100.00;100277.44;20666263;28;20440;-76
2022/08/20 01:44:24;;;;;;;2.97;1.55;;;;;;;20.34;100.00;100284.31;20664492;28;20141;-76
2022/08/20 01:54:26;;;;;;;3.85;1.30;;;;;;;20.38;100.00;100297.34;20664845;28;20081;-75
2022/08/20 02:04:27;;;;;;;3.53;1.58;;;;;;;20.39;100.00;100307.03;20664473;28;20123;-76
2022/08/20 02:14:28;;;;;;;3.55;1.90;;;;;;;20.45;100.00;100313.78;20665195;28;20057;-76
2022/08/20 02:24:30;;;;;;;3.10;1.55;;;;;;;20.43;100.00;100315.69;20663117;28;20647;-76
2022/08/20 02:34:33;;;;;;;4.63;2.15;;;;;;;20.48;100.00;100308.34;20661769;28;20058;-76
2022/08/20 02:44:34;;;;;;;4.97;2.25;;;;;;;20.52;100.00;100317.84;20661867;28;20496;-76
2022/08/20 02:54:36;;;;;;;3.50;1.92;;;;;;;20.51;100.00;100308.16;20661188;28;20047;-76
2022/08/20 03:04:37;;;;;;;4.07;2.08;;;;;;;20.44;100.00;100301.44;20659892;28;20042;-74
2022/08/20 03:14:38;;;;;;;4.88;2.15;;;;;;;20.53;100.00;100295.63;20659218;28;20050;-75
2022/08/20 03:24:40;;;;;;;4.32;2.13;;;;;;;20.50;100.00;100293.13;20658612;28;20051;-75
2022/08/20 03:34:41;;;;;;;5.00;2.22;;;;;;;20.43;100.00;100297.09;20657421;28;20064;-75
2022/08/20 03:44:43;;;;;;;4.72;2.45;;;;;;;20.46;100.00;100304.88;20657254;28;20518;-75
2022/08/20 03:54:44;;;;;;;5.55;2.60;;;;;;;20.44;100.00;100317.41;20656277;28;20070;-75
2022/08/20 04:04:46;;;;;;;5.65;2.67;;;;;;;20.45;100.00;100313.78;20655315;28;20065;-75
2022/08/20 04:14:47;;;;;;;6.22;2.50;;;;;;;20.38;100.00;100312.44;20655306;28;20085;-75
2022/08/20 04:24:49;;;;;;;5.38;2.40;;;;;;;20.27;100.00;100307.75;20655169;28;20748;-76
2022/08/20 04:34:51;;;;;;;5.50;2.78;;;;;;;20.27;100.00;100317.53;20662197;28;20049;-76
2022/08/20 04:44:52;;;;;;;7.20;3.03;;;;;;;20.16;100.00;100323.44;20654043;28;20050;-76
2022/08/20 04:54:57;;;;;;;5.35;2.72;;;;;;;20.07;100.00;100330.13;20653712;28;20165;-76
2022/08/20 05:04:58;;;;;;;5.53;3.20;;;;;;;19.94;100.00;100334.44;20652642;28;20076;-76
2022/08/20 05:14:59;;;;;;;6.22;2.80;;;;;;;19.92;100.00;100338.97;20652537;28;20396;-75
2022/08/20 05:25:01;;;;;;;8.95;3.70;;;;;;;20.07;100.00;100348.72;20652216;28;20062;-75
2022/08/20 05:35:02;;;;;;;7.55;3.60;;;;;;;20.28;100.00;100345.84;20652106;28;20703;-75
2022/08/20 05:45:04;;;;;;;5.90;3.63;;;;;;;20.38;100.00;100350.53;20666957;28;20047;-75
2022/08/20 05:55:14;;;;;;;6.20;3.10;;;;;;;20.47;100.00;100366.00;20665489;28;20058;-77
2022/08/20 06:05:16;;;;;;;5.75;3.33;;;;;;;20.68;100.00;100363.88;20664473;28;20047;-75
2022/08/20 06:15:17;;;;;;;5.38;3.10;;;;;;;20.92;100.00;100366.06;20662923;28;20057;-76
2022/08/20 06:25:19;;;;;;;6.68;2.65;;;;;;;21.55;100.00;100368.47;20663044;28;20046;-75
2022/08/20 06:35:20;;;;;;;4.25;2.55;;;;;;;21.99;95.70;100364.81;20662859;28;20046;-77
2022/08/20 06:45:23;;;;;;;5.15;2.38;;;;;;;22.18;91.87;100368.09;20661501;28;20053;-76
2022/08/20 06:55:24;;;;;;;3.83;2.00;;;;;;;22.38;89.54;100377.47;20659939;28;20054;-75
2022/08/20 07:05:26;;;;;;;5.88;2.10;;;;;;;21.89;92.93;100383.22;20659184;28;20047;-75
2022/08/20 07:15:27;;;;;;;3.10;1.55;;;;;;;21.93;93.02;100389.22;20659765;28;20495;-75
2022/08/20 07:25:28;;;;;;;4.75;1.73;;;;;;;22.01;93.35;100400.25;20659024;28;20105;-75
2022/08/20 07:35:30;;;;;;;4.25;1.92;;;;;;;21.96;94.44;100405.03;20684477;28;20038;-75
2022/08/20 07:45:31;;;;;;;4.57;2.05;;;;;;;22.23;92.14;100405.97;20754136;28;20416;-75
2022/08/20 07:55:32;;;;;;;4.45;1.90;;;;;;;22.56;87.33;100420.72;20777437;28;20045;-75
2022/08/20 08:05:34;;;;;;;3.17;1.60;;;;;;;22.83;84.86;100415.41;20769023;28;20049;-76
2022/08/20 08:15:39;;;;;;;4.10;1.60;;;;;;;22.89;82.34;100424.84;20773229;28;20053;-75
2022/08/20 08:25:44;;;;;;;3.33;1.55;;;;;;;22.68;85.88;100427.97;20747237;28;20054;-74
2022/08/20 08:35:46;;;;;;;2.03;1.02;;;;;;;22.99;78.90;100425.94;20735783;28;20057;-74
2022/08/20 08:45:48;;;;;;;2.10;0.93;;;;;;;23.63;73.86;100426.06;20736244;28;20041;-74
2022/08/20 08:55:49;;;;;;;2.42;1.10;;;;;;;23.80;72.45;100423.91;20735229;28;20612;-73
2022/08/20 09:05:51;;;;;;;4.25;1.13;;;;;;;23.56;75.39;100414.91;20733912;28;20045;-74
2022/08/20 09:15:52;;;;;;;1.95;0.80;;;;;;;24.13;72.01;100426.97;20743482;28;20058;-72
2022/08/20 09:25:53;;;;;;;1.15;0.75;;;;;;;23.94;70.53;100435.47;20746639;28;20054;-73
2022/08/20 09:35:55;;;;;;;1.35;0.90;;;;;;;24.64;66.89;100413.50;20747194;28;20062;-74
2022/08/20 09:45:56;;;;;;;1.88;0.60;;;;;;;24.73;60.05;100397.59;20746807;28;20104;-73
2022/08/20 09:55:58;;;;;;;1.23;0.65;;;;;;;24.55;61.70;100388.25;20746303;28;20130;-72
2022/08/20 10:06:00;;;;;;;1.33;0.75;;;;;;;25.28;60.26;100388.03;20744715;28;20559;-72
2022/08/20 10:16:02;;;;;;;1.98;0.80;;;;;;;25.47;60.64;100389.31;20745065;28;20054;-72
2022/08/20 10:26:03;;;;;;;1.20;0.70;;;;;;;25.35;60.19;100388.44;20743221;28;20054;-72
2022/08/20 10:36:05;;;;;;;1.58;0.70;;;;;;;25.30;56.63;100383.44;20741092;28;20057;-73
2022/08/20 10:46:06;;;;;;;1.00;0.52;;;;;;;25.88;52.88;100371.81;20741823;28;20058;-73
2022/08/20 10:56:08;;;;;;;1.13;0.82;;;;;;;25.57;53.16;100377.72;20741889;28;20071;-73
2022/08/20 11:06:15;;;;;;;1.05;0.45;;;;;;;25.09;52.95;100371.69;20741411;28;20049;-73
2022/08/20 11:16:16;;;;;;;1.35;0.63;;;;;;;25.47;52.39;100375.91;20740565;28;20049;-73
2022/08/20 11:26:17;;;;;;;0.90;0.47;;;;;;;25.41;52.75;100376.38;20739614;28;20050;-73
2022/08/20 11:36:19;;;;;;;1.23;0.70;;;;;;;25.38;52.74;100360.53;20734991;28;20054;-74
2022/08/20 11:46:20;;;;;;;1.38;0.40;;;;;;;25.29;51.68;100373.66;20738767;28;20395;-73
2022/08/20 11:56:28;;;;;;;1.65;0.50;;;;;;;25.67;49.77;100360.91;20737927;28;20060;-74
2022/08/20 12:06:30;;;;;;;1.77;0.60;;;;;;;25.22;52.47;100351.00;20736835;28;20049;-74
2022/08/20 12:16:31;;;;;;;1.63;0.60;;;;;;;25.83;49.11;100345.34;20735355;28;20399;-74
2022/08/20 12:26:32;;;;;;;1.00;0.45;;;;;;;26.69;44.97;100331.13;20735390;28;20054;-74
2022/08/20 12:36:34;;;;;;;1.13;0.60;;;;;;;26.79;43.56;100334.72;20734921;28;20060;-74
2022/08/20 12:46:35;;;;;;;0.43;0.43;;;;;;;26.40;44.08;100312.06;20738780;28;20606;-74
2022/08/20 12:56:37;;;;;;;1.70;0.70;;;;;;;26.95;42.17;100311.94;20751494;28;20058;-74
2022/08/20 13:06:38;;;;;;;3.13;0.90;;;;;;;26.66;39.84;100320.63;20749979;28;20427;-74
2022/08/20 13:16:39;;;;;;;1.40;0.60;;;;;;;26.48;40.52;100314.13;20750380;28;20056;-74
2022/08/20 13:26:41;;;;;;;2.05;0.90;;;;;;;26.83;38.48;100292.34;20749720;28;20072;-73
2022/08/20 13:36:42;;;;;;;2.03;1.02;;;;;;;27.21;37.04;100280.13;20748182;28;20502;-73
2022/08/20 13:46:43;;;;;;;4.55;1.35;;;;;;;26.89;34.70;100272.16;20747801;28;20429;-74
2022/08/20 13:56:45;;;;;;;3.58;1.30;;;;;;;27.12;34.00;100279.13;20746589;28;20069;-74
2022/08/20 14:06:46;;;;;;;2.85;1.27;;;;;;;27.26;30.11;100254.56;20746093;28;20076;-74
2022/08/20 14:16:48;;;;;;;5.55;1.17;;;;;;;27.18;31.85;100253.53;20745858;28;20064;-74
2022/08/20 14:26:49;;;;;;;2.53;1.10;;;;;;;26.98;27.89;100269.53;20744159;28;20140;-74
2022/08/20 14:36:50;;;;;;;4.55;1.38;;;;;;;27.39;28.92;100266.91;20742752;28;20068;-74
2022/08/20 14:46:52;;;;;;;4.25;1.35;;;;;;;27.63;29.00;100243.22;20742563;28;20050;-74
2022/08/20 14:56:53;;;;;;;5.63;1.23;;;;;;;27.40;27.22;100260.56;20740368;28;20054;-73
2022/08/20 15:06:55;;;;;;;2.03;1.05;;;;;;;27.28;26.77;100271.41;20740000;28;20115;-74
2022/08/20 15:17:00;;;;;;;2.58;1.10;;;;;;;27.20;27.34;100265.84;20736854;28;20107;-76
2022/08/20 15:27:02;;;;;;;6.13;1.13;;;;;;;27.12;28.97;100260.31;20768039;28;20038;-74
2022/08/20 15:37:03;;;;;;;6.40;1.90;;;;;;;27.02;27.73;100257.53;20815284;28;20065;-75
2022/08/20 15:47:04;;;;;;;3.72;1.33;;;;;;;27.15;28.30;100257.34;20814231;28;20520;-74
2022/08/20 15:57:06;;;;;;;2.92;1.23;;;;;;;27.03;28.46;100251.16;20811265;28;20042;-74
2022/08/20 16:07:07;;;;;;;4.70;1.40;;;;;;;26.92;27.78;100263.81;20755010;28;20049;-74
2022/08/20 16:17:08;;;;;;;3.97;1.30;;;;;;;27.16;27.90;100267.09;20750381;28;20160;-74
2022/08/20 16:27:11;;;;;;;2.55;1.05;;;;;;;27.13;28.00;100266.53;20768654;28;20057;-74
2022/08/20 16:37:12;;;;;;;3.80;1.67;;;;;;;26.92;28.45;100275.41;20678502;28;20053;-75
2022/08/20 16:47:14;;;;;;;3.13;1.10;;;;;;;27.07;29.32;100281.31;20808858;28;20045;-74
2022/08/20 16:57:17;;;;;;;3.90;1.35;;;;;;;27.27;29.24;100285.00;20807501;28;20565;-73
2022/08/20 17:07:18;;;;;;;3.90;1.27;;;;;;;27.21;29.65;100286.34;20808795;28;20538;-74
2022/08/20 17:17:21;;;;;;;3.20;1.30;;;;;;;27.09;29.96;100274.00;20742337;28;20116;-74
2022/08/20 17:27:22;;;;;;;3.85;1.10;;;;;;;26.81;31.68;100284.41;20730871;28;20057;-75
2022/08/20 17:37:24;;;;;;;2.60;0.90;;;;;;;26.58;31.94;100294.41;20731682;28;20422;-74
2022/08/20 17:47:26;;;;;;;4.38;1.40;;;;;;;26.26;33.04;100297.09;20738283;28;20108;-74
2022/08/20 17:57:27;;;;;;;6.70;1.58;;;;;;;25.93;34.36;100302.53;20737882;28;20062;-74
2022/08/20 18:07:29;;;;;;;4.57;1.50;;;;;;;25.52;35.21;100312.91;20735988;28;20049;-74
2022/08/20 18:17:30;;;;;;;5.25;1.50;;;;;;;25.05;36.48;100311.22;20736033;28;20050;-75
2022/08/20 18:27:31;;;;;;;9.13;1.63;;;;;;;24.70;37.30;100322.84;20735943;28;20057;-74
2022/08/20 18:37:33;;;;;;;4.72;1.25;;;;;;;24.32;38.28;100325.69;20736110;28;20060;-74
2022/08/20 18:47:34;;;;;;;5.07;1.58;;;;;;;23.99;38.75;100347.72;20733089;28;20050;-74
2022/08/20 18:57:35;;;;;;;5.30;1.60;;;;;;;23.88;38.88;100350.34;20733827;28;20054;-74
2022/08/20 19:07:42;;;;;;;4.50;1.40;;;;;;;23.41;40.12;100358.03;20731703;28;20049;-74
2022/08/20 19:17:49;;;;;;;6.10;1.65;;;;;;;23.18;40.91;100361.44;20733790;28;20053;-74
2022/08/20 19:27:50;;;;;;;4.25;1.48;;;;;;;22.92;41.92;100371.25;20731138;28;20104;-74
2022/08/20 19:37:52;;;;;;;5.68;1.48;;;;;;;22.72;42.60;100380.56;20729411;28;20073;-73
2022/08/20 19:47:53;;;;;;;6.30;1.83;;;;;;;22.46;43.23;100379.59;20730612;28;20053;-74
2022/08/20 19:57:55;;;;;;;2.90;1.27;;;;;;;22.18;44.23;100381.41;20728704;28;20057;-73
2022/08/20 20:07:57;;;;;;;3.70;1.50;;;;;;;21.92;45.43;100385.69;20728207;28;20046;-73
2022/08/20 20:17:58;;;;;;;6.28;1.83;;;;;;;21.68;46.18;100388.09;20798189;28;20391;-73
2022/08/20 20:28:00;;;;;;;5.18;1.70;;;;;;;21.45;47.24;100381.50;20809504;28;20057;-73
2022/08/20 20:38:01;;;;;;;6.88;1.77;;;;;;;21.19;48.47;100390.19;20808835;28;20103;-73
2022/08/20 20:48:02;;;;;;;6.35;2.00;;;;;;;20.52;51.17;100402.97;20809074;28;20053;-74
2022/08/20 20:58:04;;;;;;;7.20;1.88;;;;;;;20.50;51.53;100404.84;20807524;28;20050;-74
2022/08/20 21:08:05;;;;;;;9.18;1.75;;;;;;;20.52;51.95;100397.66;20811446;28;20049;-74
2022/08/20 21:18:06;;;;;;;6.72;1.95;;;;;;;20.38;52.30;100409.03;20752428;28;20529;-73
2022/08/20 21:28:08;;;;;;;5.10;1.90;;;;;;;20.22;53.76;100430.31;20741675;28;20486;-75
2022/08/20 21:38:09;;;;;;;6.03;1.92;;;;;;;19.96;54.46;100439.69;20740423;28;20046;-75
2022/08/20 21:48:14;;;;;;;;;;;;;;;19.91;54.93;100441.75;20738706;28;20136;-74
2022/08/20 21:58:15;;;;;;;5.70;2.13;;;;;;;19.72;56.61;100444.53;20738427;28;19952;-73
2022/08/20 22:08:17;;;;;;;6.77;2.17;;;;;;;19.49;57.74;100442.19;20781625;23;1053285;-74
2022/08/20 22:18:18;;;;;;;4.57;2.00;;;;;;;19.27;59.21;100444.25;20829254;28;20326;-73
2022/08/20 22:28:19;;;;;;;5.53;2.10;;;;;;;19.06;59.72;100444.38;20819049;28;20049;-73
2022/08/20 22:38:21;;;;;;;5.80;2.20;;;;;;;18.93;59.65;100457.41;20751623;28;20422;-73
2022/08/20 22:48:22;;;;;;;5.30;2.00;;;;;;;18.80;60.64;100455.44;20750089;28;20107;-72
2022/08/20 22:58:24;;;;;;;4.95;2.05;;;;;;;18.63;61.66;100464.16;20751828;28;20049;-73
2022/08/20 23:08:31;;;;;;;6.35;2.05;;;;;;;18.42;63.68;100461.59;20750325;28;20072;-72
2022/08/20 23:18:32;;;;;;;4.18;2.13;;;;;;;18.09;65.36;100463.16;20751223;28;20104;-73
2022/08/20 23:28:34;;;;;;;6.03;2.22;;;;;;;18.06;65.20;100464.19;20750628;28;20498;-73
2022/08/20 23:38:35;;;;;;;5.93;2.22;;;;;;;17.97;66.14;100459.28;20753550;28;20054;-73
2022/08/20 23:48:37;;;;;;;8.65;2.40;;;;;;;17.76;66.84;100460.25;20766496;28;20081;-73
2022/08/20 23:58:38;;;;;;;5.50;2.20;;;;;;;17.51;67.56;100449.84;20762007;28;20525;-74
